sensor_id;sensor_type;location;lat;lon;timestamp;temperature;humidity
25871;DHT22;13689;48.590;7.752;2023-04-15T00:00:19;11.10;53.30
25871;DHT22;13689;48.590;7.752;2023-04-15T00:02:45;11.10;53.40
25871;DHT22;13689;48.590;7.752;2023-04-15T00:05:11;11.00;53.50
25871;DHT22;13689;48.590;7.752;2023-04-15T00:07:36;11.00;53.70
25871;DHT22;13689;48.590;7.752;2023-04-15T00:10:03;10.90;53.80
25871;DHT22;13689;48.590;7.752;2023-04-15T00:12:29;10.90;53.90
25871;DHT22;13689;48.590;7.752;2023-04-15T00:14:55;10.90;53.90
25871;DHT22;13689;48.590;7.752;2023-04-15T00:17:21;10.80;53.90
25871;DHT22;13689;48.590;7.752;2023-04-15T00:19:47;10.80;53.80
25871;DHT22;13689;48.590;7.752;2023-04-15T00:22:13;10.80;53.80
25871;DHT22;13689;48.590;7.752;2023-04-15T00:24:38;10.80;53.80
25871;DHT22;13689;48.590;7.752;2023-04-15T00:27:04;10.80;53.80
25871;DHT22;13689;48.590;7.752;2023-04-15T00:29:30;10.80;53.80
25871;DHT22;13689;48.590;7.752;2023-04-15T00:31:56;10.80;53.80
25871;DHT22;13689;48.590;7.752;2023-04-15T00:34:22;10.70;53.80
25871;DHT22;13689;48.590;7.752;2023-04-15T00:36:49;10.70;53.80
25871;DHT22;13689;48.590;7.752;2023-04-15T00:39:14;10.70;53.70
25871;DHT22;13689;48.590;7.752;2023-04-15T00:41:41;10.60;54.20
25871;DHT22;13689;48.590;7.752;2023-04-15T00:44:07;10.60;53.70
25871;DHT22;13689;48.590;7.752;2023-04-15T00:46:35;10.50;53.70
25871;DHT22;13689;48.590;7.752;2023-04-15T00:49:05;10.50;53.80
25871;DHT22;13689;48.590;7.752;2023-04-15T00:51:32;10.40;53.80
25871;DHT22;13689;48.590;7.752;2023-04-15T00:54:01;10.40;53.90
25871;DHT22;13689;48.590;7.752;2023-04-15T00:56:27;10.40;53.80
25871;DHT22;13689;48.590;7.752;2023-04-15T00:58:53;10.20;54.00
25871;DHT22;13689;48.590;7.752;2023-04-15T01:01:24;10.10;54.20
25871;DHT22;13689;48.590;7.752;2023-04-15T01:03:50;10.20;54.30
25871;DHT22;13689;48.590;7.752;2023-04-15T01:06:17;10.20;54.10
25871;DHT22;13689;48.590;7.752;2023-04-15T01:08:43;10.30;54.10
25871;DHT22;13689;48.590;7.752;2023-04-15T01:11:10;10.30;54.00
25871;DHT22;13689;48.590;7.752;2023-04-15T01:13:37;10.20;54.10
25871;DHT22;13689;48.590;7.752;2023-04-15T01:16:02;10.10;54.30
25871;DHT22;13689;48.590;7.752;2023-04-15T01:18:28;10.10;54.30
25871;DHT22;13689;48.590;7.752;2023-04-15T01:20:54;10.20;54.40
25871;DHT22;13689;48.590;7.752;2023-04-15T01:23:21;10.20;54.30
25871;DHT22;13689;48.590;7.752;2023-04-15T01:25:50;10.20;54.40
25871;DHT22;13689;48.590;7.752;2023-04-15T01:28:17;10.20;54.30
25871;DHT22;13689;48.590;7.752;2023-04-15T01:30:43;10.30;54.40
25871;DHT22;13689;48.590;7.752;2023-04-15T01:33:09;10.30;54.40
25871;DHT22;13689;48.590;7.752;2023-04-15T01:35:34;10.30;54.40
25871;DHT22;13689;48.590;7.752;2023-04-15T01:38:10;10.30;54.40
25871;DHT22;13689;48.590;7.752;2023-04-15T01:40:36;10.30;54.40
25871;DHT22;13689;48.590;7.752;2023-04-15T01:43:01;10.20;54.50
25871;DHT22;13689;48.590;7.752;2023-04-15T01:45:28;10.10;54.70
25871;DHT22;13689;48.590;7.752;2023-04-15T01:47:54;10.10;54.90
25871;DHT22;13689;48.590;7.752;2023-04-15T01:50:20;10.10;55.00
25871;DHT22;13689;48.590;7.752;2023-04-15T01:52:46;10.10;55.00
25871;DHT22;13689;48.590;7.752;2023-04-15T01:55:12;10.10;55.00
25871;DHT22;13689;48.590;7.752;2023-04-15T01:57:37;10.20;55.00
25871;DHT22;13689;48.590;7.752;2023-04-15T02:00:04;10.20;55.00
25871;DHT22;13689;48.590;7.752;2023-04-15T02:02:32;10.20;55.00
25871;DHT22;13689;48.590;7.752;2023-04-15T02:04:57;10.20;55.10
25871;DHT22;13689;48.590;7.752;2023-04-15T02:07:23;10.20;55.10
25871;DHT22;13689;48.590;7.752;2023-04-15T02:09:49;10.20;55.20
25871;DHT22;13689;48.590;7.752;2023-04-15T02:12:14;10.10;55.10
25871;DHT22;13689;48.590;7.752;2023-04-15T02:14:40;10.10;55.20
25871;DHT22;13689;48.590;7.752;2023-04-15T02:17:06;10.00;55.40
25871;DHT22;13689;48.590;7.752;2023-04-15T02:19:35;10.00;55.40
25871;DHT22;13689;48.590;7.752;2023-04-15T02:22:01;10.00;55.60
25871;DHT22;13689;48.590;7.752;2023-04-15T02:24:29;10.00;55.70
25871;DHT22;13689;48.590;7.752;2023-04-15T02:26:55;10.00;55.80
25871;DHT22;13689;48.590;7.752;2023-04-15T02:29:21;9.90;56.10
25871;DHT22;13689;48.590;7.752;2023-04-15T02:31:48;9.90;56.50
25871;DHT22;13689;48.590;7.752;2023-04-15T02:34:13;9.90;56.60
25871;DHT22;13689;48.590;7.752;2023-04-15T02:36:39;9.90;56.50
25871;DHT22;13689;48.590;7.752;2023-04-15T02:39:05;9.90;56.50
25871;DHT22;13689;48.590;7.752;2023-04-15T02:41:31;10.00;56.60
25871;DHT22;13689;48.590;7.752;2023-04-15T02:43:56;9.90;56.60
25871;DHT22;13689;48.590;7.752;2023-04-15T02:46:22;9.90;56.70
25871;DHT22;13689;48.590;7.752;2023-04-15T02:48:49;9.90;56.70
25871;DHT22;13689;48.590;7.752;2023-04-15T02:51:20;9.80;56.90
25871;DHT22;13689;48.590;7.752;2023-04-15T02:53:47;9.90;56.90
25871;DHT22;13689;48.590;7.752;2023-04-15T02:56:13;9.80;57.00
25871;DHT22;13689;48.590;7.752;2023-04-15T02:58:40;9.80;57.00
25871;DHT22;13689;48.590;7.752;2023-04-15T03:01:06;9.80;57.10
25871;DHT22;13689;48.590;7.752;2023-04-15T03:03:33;9.80;57.10
25871;DHT22;13689;48.590;7.752;2023-04-15T03:05:59;9.90;57.10
25871;DHT22;13689;48.590;7.752;2023-04-15T03:08:25;9.90;57.20
25871;DHT22;13689;48.590;7.752;2023-04-15T03:10:51;9.90;57.30
25871;DHT22;13689;48.590;7.752;2023-04-15T03:13:18;9.80;57.30
25871;DHT22;13689;48.590;7.752;2023-04-15T03:15:46;9.80;57.40
25871;DHT22;13689;48.590;7.752;2023-04-15T03:18:12;9.70;57.60
25871;DHT22;13689;48.590;7.752;2023-04-15T03:20:37;9.70;57.80
25871;DHT22;13689;48.590;7.752;2023-04-15T03:23:03;9.60;57.80
25871;DHT22;13689;48.590;7.752;2023-04-15T03:25:29;9.60;57.90
25871;DHT22;13689;48.590;7.752;2023-04-15T03:27:54;9.70;58.00
25871;DHT22;13689;48.590;7.752;2023-04-15T03:30:20;9.70;57.90
25871;DHT22;13689;48.590;7.752;2023-04-15T03:32:46;9.70;57.90
25871;DHT22;13689;48.590;7.752;2023-04-15T03:35:11;9.70;57.90
25871;DHT22;13689;48.590;7.752;2023-04-15T03:37:37;9.70;57.90
25871;DHT22;13689;48.590;7.752;2023-04-15T03:40:03;9.70;57.90
25871;DHT22;13689;48.590;7.752;2023-04-15T03:42:29;9.60;58.00
25871;DHT22;13689;48.590;7.752;2023-04-15T03:44:54;9.60;58.10
25871;DHT22;13689;48.590;7.752;2023-04-15T03:47:20;9.60;58.20
25871;DHT22;13689;48.590;7.752;2023-04-15T03:49:46;9.60;58.20
25871;DHT22;13689;48.590;7.752;2023-04-15T03:52:11;9.70;58.20
25871;DHT22;13689;48.590;7.752;2023-04-15T03:54:37;9.70;58.20
25871;DHT22;13689;48.590;7.752;2023-04-15T03:57:02;9.60;58.20
25871;DHT22;13689;48.590;7.752;2023-04-15T03:59:28;9.60;58.20
25871;DHT22;13689;48.590;7.752;2023-04-15T04:01:53;9.60;58.20
25871;DHT22;13689;48.590;7.752;2023-04-15T04:04:19;9.60;58.20
25871;DHT22;13689;48.590;7.752;2023-04-15T04:06:45;9.50;58.30
25871;DHT22;13689;48.590;7.752;2023-04-15T04:09:11;9.50;58.30
25871;DHT22;13689;48.590;7.752;2023-04-15T04:11:36;9.50;58.90
25871;DHT22;13689;48.590;7.752;2023-04-15T04:14:02;9.50;58.30
25871;DHT22;13689;48.590;7.752;2023-04-15T04:16:27;9.50;58.20
25871;DHT22;13689;48.590;7.752;2023-04-15T04:18:53;9.50;58.20
25871;DHT22;13689;48.590;7.752;2023-04-15T04:21:19;9.50;58.20
25871;DHT22;13689;48.590;7.752;2023-04-15T04:23:45;9.60;58.30
25871;DHT22;13689;48.590;7.752;2023-04-15T04:26:11;9.60;58.20
25871;DHT22;13689;48.590;7.752;2023-04-15T04:28:37;9.60;58.10
25871;DHT22;13689;48.590;7.752;2023-04-15T04:31:05;9.60;58.10
25871;DHT22;13689;48.590;7.752;2023-04-15T04:33:31;9.60;58.10
25871;DHT22;13689;48.590;7.752;2023-04-15T04:35:56;9.60;58.20
25871;DHT22;13689;48.590;7.752;2023-04-15T04:38:22;9.60;58.20
25871;DHT22;13689;48.590;7.752;2023-04-15T04:40:47;9.60;58.30
25871;DHT22;13689;48.590;7.752;2023-04-15T04:43:13;9.60;58.40
25871;DHT22;13689;48.590;7.752;2023-04-15T04:45:40;9.50;58.60
25871;DHT22;13689;48.590;7.752;2023-04-15T04:48:06;9.50;58.90
25871;DHT22;13689;48.590;7.752;2023-04-15T04:50:33;9.50;59.10
25871;DHT22;13689;48.590;7.752;2023-04-15T04:53:00;9.40;59.20
25871;DHT22;13689;48.590;7.752;2023-04-15T04:55:25;9.50;59.50
25871;DHT22;13689;48.590;7.752;2023-04-15T04:57:51;9.40;59.50
25871;DHT22;13689;48.590;7.752;2023-04-15T05:00:17;9.50;59.60
25871;DHT22;13689;48.590;7.752;2023-04-15T05:02:44;9.50;59.70
25871;DHT22;13689;48.590;7.752;2023-04-15T05:05:10;9.60;59.70
25871;DHT22;13689;48.590;7.752;2023-04-15T05:07:36;9.60;59.70
25871;DHT22;13689;48.590;7.752;2023-04-15T05:10:03;9.70;59.70
25871;DHT22;13689;48.590;7.752;2023-04-15T05:12:29;9.60;59.70
25871;DHT22;13689;48.590;7.752;2023-04-15T05:14:55;9.60;59.90
25871;DHT22;13689;48.590;7.752;2023-04-15T05:17:20;9.60;60.10
25871;DHT22;13689;48.590;7.752;2023-04-15T05:19:46;9.50;60.30
25871;DHT22;13689;48.590;7.752;2023-04-15T05:22:12;9.60;60.50
25871;DHT22;13689;48.590;7.752;2023-04-15T05:24:37;9.50;60.80
25871;DHT22;13689;48.590;7.752;2023-04-15T05:27:08;9.40;61.80
25871;DHT22;13689;48.590;7.752;2023-04-15T05:29:35;9.50;62.20
25871;DHT22;13689;48.590;7.752;2023-04-15T05:32:01;9.50;62.20
25871;DHT22;13689;48.590;7.752;2023-04-15T05:34:27;9.60;62.20
25871;DHT22;13689;48.590;7.752;2023-04-15T05:36:52;9.60;62.00
25871;DHT22;13689;48.590;7.752;2023-04-15T05:39:18;9.70;62.20
25871;DHT22;13689;48.590;7.752;2023-04-15T05:41:44;9.80;62.20
25871;DHT22;13689;48.590;7.752;2023-04-15T05:44:09;9.80;62.10
25871;DHT22;13689;48.590;7.752;2023-04-15T05:46:35;9.90;62.00
25871;DHT22;13689;48.590;7.752;2023-04-15T05:49:00;9.90;62.00
25871;DHT22;13689;48.590;7.752;2023-04-15T05:51:26;10.00;62.00
25871;DHT22;13689;48.590;7.752;2023-04-15T05:53:52;10.00;62.10
25871;DHT22;13689;48.590;7.752;2023-04-15T05:56:17;10.00;62.10
25871;DHT22;13689;48.590;7.752;2023-04-15T05:58:44;10.10;62.10
25871;DHT22;13689;48.590;7.752;2023-04-15T06:01:10;10.20;62.00
25871;DHT22;13689;48.590;7.752;2023-04-15T06:03:36;10.20;62.00
25871;DHT22;13689;48.590;7.752;2023-04-15T06:06:03;10.30;62.00
25871;DHT22;13689;48.590;7.752;2023-04-15T06:08:29;10.30;62.00
25871;DHT22;13689;48.590;7.752;2023-04-15T06:10:54;10.40;62.00
25871;DHT22;13689;48.590;7.752;2023-04-15T06:13:20;10.40;61.80
25871;DHT22;13689;48.590;7.752;2023-04-15T06:15:45;10.40;61.70
25871;DHT22;13689;48.590;7.752;2023-04-15T06:18:11;10.50;61.60
25871;DHT22;13689;48.590;7.752;2023-04-15T06:20:37;10.50;62.50
25871;DHT22;13689;48.590;7.752;2023-04-15T06:23:03;10.50;61.70
25871;DHT22;13689;48.590;7.752;2023-04-15T06:25:28;10.50;61.60
25871;DHT22;13689;48.590;7.752;2023-04-15T06:27:54;10.50;61.50
25871;DHT22;13689;48.590;7.752;2023-04-15T06:30:20;10.50;61.60
25871;DHT22;13689;48.590;7.752;2023-04-15T06:32:45;10.50;61.60
25871;DHT22;13689;48.590;7.752;2023-04-15T06:35:11;10.60;61.60
25871;DHT22;13689;48.590;7.752;2023-04-15T06:37:37;10.70;61.30
25871;DHT22;13689;48.590;7.752;2023-04-15T06:40:02;10.60;61.10
25871;DHT22;13689;48.590;7.752;2023-04-15T06:42:29;10.70;60.90
25871;DHT22;13689;48.590;7.752;2023-04-15T06:44:55;10.80;60.90
25871;DHT22;13689;48.590;7.752;2023-04-15T06:47:21;10.80;60.60
25871;DHT22;13689;48.590;7.752;2023-04-15T06:49:46;10.70;60.30
25871;DHT22;13689;48.590;7.752;2023-04-15T06:52:12;10.90;60.50
25871;DHT22;13689;48.590;7.752;2023-04-15T06:54:38;11.00;60.10
25871;DHT22;13689;48.590;7.752;2023-04-15T06:57:04;11.10;59.70
25871;DHT22;13689;48.590;7.752;2023-04-15T06:59:30;11.20;59.30
25871;DHT22;13689;48.590;7.752;2023-04-15T07:01:57;11.30;59.30
25871;DHT22;13689;48.590;7.752;2023-04-15T07:04:22;11.40;59.30
25871;DHT22;13689;48.590;7.752;2023-04-15T07:06:51;11.40;58.80
25871;DHT22;13689;48.590;7.752;2023-04-15T07:09:17;11.40;58.80
25871;DHT22;13689;48.590;7.752;2023-04-15T07:11:45;11.60;58.90
25871;DHT22;13689;48.590;7.752;2023-04-15T07:14:11;12.20;58.60
25871;DHT22;13689;48.590;7.752;2023-04-15T07:16:36;12.80;57.80
25871;DHT22;13689;48.590;7.752;2023-04-15T07:19:02;13.10;57.10
25871;DHT22;13689;48.590;7.752;2023-04-15T07:21:28;13.60;56.50
25871;DHT22;13689;48.590;7.752;2023-04-15T07:23:53;14.30;55.90
25871;DHT22;13689;48.590;7.752;2023-04-15T07:26:19;14.50;55.10
25871;DHT22;13689;48.590;7.752;2023-04-15T07:28:45;14.80;54.80
25871;DHT22;13689;48.590;7.752;2023-04-15T07:31:11;14.80;54.10
25871;DHT22;13689;48.590;7.752;2023-04-15T07:33:37;14.70;54.20
25871;DHT22;13689;48.590;7.752;2023-04-15T07:36:03;14.50;54.20
25871;DHT22;13689;48.590;7.752;2023-04-15T07:38:28;14.20;54.40
25871;DHT22;13689;48.590;7.752;2023-04-15T07:40:54;14.00;54.40
25871;DHT22;13689;48.590;7.752;2023-04-15T07:43:21;14.20;54.50
25871;DHT22;13689;48.590;7.752;2023-04-15T07:45:46;14.20;54.40
25871;DHT22;13689;48.590;7.752;2023-04-15T07:48:12;14.60;53.80
25871;DHT22;13689;48.590;7.752;2023-04-15T07:50:38;15.10;53.40
25871;DHT22;13689;48.590;7.752;2023-04-15T07:53:03;16.00;52.00
25871;DHT22;13689;48.590;7.752;2023-04-15T07:55:30;16.50;51.10
25871;DHT22;13689;48.590;7.752;2023-04-15T07:57:56;17.10;50.40
25871;DHT22;13689;48.590;7.752;2023-04-15T08:00:21;17.30;49.40
25871;DHT22;13689;48.590;7.752;2023-04-15T08:02:48;17.70;48.80
25871;DHT22;13689;48.590;7.752;2023-04-15T08:05:14;18.00;48.20
25871;DHT22;13689;48.590;7.752;2023-04-15T08:07:40;18.40;47.40
25871;DHT22;13689;48.590;7.752;2023-04-15T08:10:06;18.90;46.80
25871;DHT22;13689;48.590;7.752;2023-04-15T08:12:32;19.50;45.70
25871;DHT22;13689;48.590;7.752;2023-04-15T08:14:58;20.00;44.80
25871;DHT22;13689;48.590;7.752;2023-04-15T08:17:23;20.60;43.90
25871;DHT22;13689;48.590;7.752;2023-04-15T08:19:49;20.90;42.90
25871;DHT22;13689;48.590;7.752;2023-04-15T08:22:16;21.20;42.20
25871;DHT22;13689;48.590;7.752;2023-04-15T08:24:41;21.20;41.80
25871;DHT22;13689;48.590;7.752;2023-04-15T08:27:07;21.30;41.30
25871;DHT22;13689;48.590;7.752;2023-04-15T08:29:33;21.00;40.40
25871;DHT22;13689;48.590;7.752;2023-04-15T08:31:59;20.60;40.60
25871;DHT22;13689;48.590;7.752;2023-04-15T08:34:26;20.40;41.40
25871;DHT22;13689;48.590;7.752;2023-04-15T08:36:52;20.50;41.60
25871;DHT22;13689;48.590;7.752;2023-04-15T08:39:17;20.60;41.10
25871;DHT22;13689;48.590;7.752;2023-04-15T08:42:10;20.50;40.80
25871;DHT22;13689;48.590;7.752;2023-04-15T08:44:37;20.70;41.60
25871;DHT22;13689;48.590;7.752;2023-04-15T08:47:07;20.90;40.60
25871;DHT22;13689;48.590;7.752;2023-04-15T08:49:36;21.10;40.20
25871;DHT22;13689;48.590;7.752;2023-04-15T08:52:03;21.30;40.10
25871;DHT22;13689;48.590;7.752;2023-04-15T08:54:30;21.40;39.70
25871;DHT22;13689;48.590;7.752;2023-04-15T08:56:57;21.30;39.40
25871;DHT22;13689;48.590;7.752;2023-04-15T08:59:23;20.90;39.40
25871;DHT22;13689;48.590;7.752;2023-04-15T09:01:49;20.70;40.10
25871;DHT22;13689;48.590;7.752;2023-04-15T09:04:17;20.40;39.90
25871;DHT22;13689;48.590;7.752;2023-04-15T09:06:44;20.00;40.40
25871;DHT22;13689;48.590;7.752;2023-04-15T09:09:11;20.30;40.70
25871;DHT22;13689;48.590;7.752;2023-04-15T09:11:37;20.30;40.30
25871;DHT22;13689;48.590;7.752;2023-04-15T09:14:04;20.30;40.30
25871;DHT22;13689;48.590;7.752;2023-04-15T09:16:29;20.40;40.20
25871;DHT22;13689;48.590;7.752;2023-04-15T09:18:56;20.40;40.00
25871;DHT22;13689;48.590;7.752;2023-04-15T09:21:22;20.50;40.10
25871;DHT22;13689;48.590;7.752;2023-04-15T09:23:59;20.80;39.80
25871;DHT22;13689;48.590;7.752;2023-04-15T09:26:34;21.40;39.20
25871;DHT22;13689;48.590;7.752;2023-04-15T09:29:09;21.90;38.60
25871;DHT22;13689;48.590;7.752;2023-04-15T09:31:42;22.30;38.10
25871;DHT22;13689;48.590;7.752;2023-04-15T09:34:08;22.50;37.70
25871;DHT22;13689;48.590;7.752;2023-04-15T09:36:55;22.60;37.40
25871;DHT22;13689;48.590;7.752;2023-04-15T09:39:21;22.50;37.20
25871;DHT22;13689;48.590;7.752;2023-04-15T09:42:03;22.20;37.40
25871;DHT22;13689;48.590;7.752;2023-04-15T09:44:30;22.00;37.70
25871;DHT22;13689;48.590;7.752;2023-04-15T09:46:55;21.90;37.90
25871;DHT22;13689;48.590;7.752;2023-04-15T09:49:21;21.80;37.80
25871;DHT22;13689;48.590;7.752;2023-04-15T09:51:48;21.80;38.00
25871;DHT22;13689;48.590;7.752;2023-04-15T09:54:20;22.10;37.80
25871;DHT22;13689;48.590;7.752;2023-04-15T09:56:46;22.50;37.50
25871;DHT22;13689;48.590;7.752;2023-04-15T09:59:12;22.70;37.20
25871;DHT22;13689;48.590;7.752;2023-04-15T10:01:40;23.00;36.70
25871;DHT22;13689;48.590;7.752;2023-04-15T10:04:08;23.10;36.30
25871;DHT22;13689;48.590;7.752;2023-04-15T10:06:34;23.00;36.20
25871;DHT22;13689;48.590;7.752;2023-04-15T10:09:00;22.90;36.20
25871;DHT22;13689;48.590;7.752;2023-04-15T10:11:28;22.90;36.00
25871;DHT22;13689;48.590;7.752;2023-04-15T10:13:55;23.10;35.70
25871;DHT22;13689;48.590;7.752;2023-04-15T10:16:23;23.10;34.90
25871;DHT22;13689;48.590;7.752;2023-04-15T10:18:56;23.30;34.90
25871;DHT22;13689;48.590;7.752;2023-04-15T10:21:23;23.50;34.60
25871;DHT22;13689;48.590;7.752;2023-04-15T10:23:49;23.70;34.10
25871;DHT22;13689;48.590;7.752;2023-04-15T10:26:16;24.00;33.80
25871;DHT22;13689;48.590;7.752;2023-04-15T10:28:42;24.40;33.40
25871;DHT22;13689;48.590;7.752;2023-04-15T10:31:13;24.80;33.10
25871;DHT22;13689;48.590;7.752;2023-04-15T10:33:41;25.20;32.60
25871;DHT22;13689;48.590;7.752;2023-04-15T10:36:08;25.40;32.20
25871;DHT22;13689;48.590;7.752;2023-04-15T10:38:43;25.30;31.40
25871;DHT22;13689;48.590;7.752;2023-04-15T10:41:16;25.00;32.10
25871;DHT22;13689;48.590;7.752;2023-04-15T10:43:49;25.10;32.10
25871;DHT22;13689;48.590;7.752;2023-04-15T10:48:52;23.30;31.90
25871;DHT22;13689;48.590;7.752;2023-04-15T10:51:29;22.40;33.20
25871;DHT22;13689;48.590;7.752;2023-04-15T10:53:56;21.70;34.00
25871;DHT22;13689;48.590;7.752;2023-04-15T10:56:23;21.20;34.80
25871;DHT22;13689;48.590;7.752;2023-04-15T10:58:48;20.70;35.50
25871;DHT22;13689;48.590;7.752;2023-04-15T11:01:14;20.50;36.00
25871;DHT22;13689;48.590;7.752;2023-04-15T11:03:42;20.20;37.10
25871;DHT22;13689;48.590;7.752;2023-04-15T11:06:08;19.70;36.70
25871;DHT22;13689;48.590;7.752;2023-04-15T11:08:53;19.50;37.00
25871;DHT22;13689;48.590;7.752;2023-04-15T11:11:21;19.20;37.40
25871;DHT22;13689;48.590;7.752;2023-04-15T11:13:47;19.00;37.80
25871;DHT22;13689;48.590;7.752;2023-04-15T11:16:14;18.80;38.20
25871;DHT22;13689;48.590;7.752;2023-04-15T11:18:40;18.90;38.50
25871;DHT22;13689;48.590;7.752;2023-04-15T11:21:06;19.10;38.30
25871;DHT22;13689;48.590;7.752;2023-04-15T11:23:39;19.30;38.10
25871;DHT22;13689;48.590;7.752;2023-04-15T11:26:09;19.30;37.40
25871;DHT22;13689;48.590;7.752;2023-04-15T11:28:37;19.40;36.50
25871;DHT22;13689;48.590;7.752;2023-04-15T11:31:21;19.40;35.90
25871;DHT22;13689;48.590;7.752;2023-04-15T11:33:57;19.70;35.60
25871;DHT22;13689;48.590;7.752;2023-04-15T11:36:24;19.70;35.30
25871;DHT22;13689;48.590;7.752;2023-04-15T11:38:51;19.60;34.10
25871;DHT22;13689;48.590;7.752;2023-04-15T11:41:20;19.50;34.30
25871;DHT22;13689;48.590;7.752;2023-04-15T11:43:47;19.30;33.70
25871;DHT22;13689;48.590;7.752;2023-04-15T11:46:12;19.30;33.40
25871;DHT22;13689;48.590;7.752;2023-04-15T11:48:42;19.30;33.20
25871;DHT22;13689;48.590;7.752;2023-04-15T11:51:08;19.40;33.50
25871;DHT22;13689;48.590;7.752;2023-04-15T11:53:45;19.50;33.50
25871;DHT22;13689;48.590;7.752;2023-04-15T11:56:23;19.70;33.20
25871;DHT22;13689;48.590;7.752;2023-04-15T11:58:57;19.90;33.10
25871;DHT22;13689;48.590;7.752;2023-04-15T12:01:34;19.90;32.90
25871;DHT22;13689;48.590;7.752;2023-04-15T12:04:00;19.80;33.00
25871;DHT22;13689;48.590;7.752;2023-04-15T12:06:33;19.70;33.20
25871;DHT22;13689;48.590;7.752;2023-04-15T12:09:07;19.30;33.80
25871;DHT22;13689;48.590;7.752;2023-04-15T12:11:50;19.10;34.60
25871;DHT22;13689;48.590;7.752;2023-04-15T12:14:30;18.80;35.20
25871;DHT22;13689;48.590;7.752;2023-04-15T12:17:05;18.60;35.70
25871;DHT22;13689;48.590;7.752;2023-04-15T12:19:35;18.40;35.60
25871;DHT22;13689;48.590;7.752;2023-04-15T12:24:31;18.50;35.90
25871;DHT22;13689;48.590;7.752;2023-04-15T12:26:57;18.60;35.70
25871;DHT22;13689;48.590;7.752;2023-04-15T12:29:27;18.90;35.40
25871;DHT22;13689;48.590;7.752;2023-04-15T12:34:27;19.00;34.20
25871;DHT22;13689;48.590;7.752;2023-04-15T12:36:53;18.90;33.20
25871;DHT22;13689;48.590;7.752;2023-04-15T12:39:23;18.80;32.80
25871;DHT22;13689;48.590;7.752;2023-04-15T12:41:49;18.80;32.30
25871;DHT22;13689;48.590;7.752;2023-04-15T12:44:15;18.80;32.20
25871;DHT22;13689;48.590;7.752;2023-04-15T12:46:41;18.80;31.20
25871;DHT22;13689;48.590;7.752;2023-04-15T12:49:07;18.90;30.90
25871;DHT22;13689;48.590;7.752;2023-04-15T12:51:33;19.00;30.90
25871;DHT22;13689;48.590;7.752;2023-04-15T12:53:59;19.10;30.20
25871;DHT22;13689;48.590;7.752;2023-04-15T12:56:24;19.00;29.80
25871;DHT22;13689;48.590;7.752;2023-04-15T12:58:51;19.00;29.90
25871;DHT22;13689;48.590;7.752;2023-04-15T13:01:17;19.20;30.00
25871;DHT22;13689;48.590;7.752;2023-04-15T13:03:43;19.20;29.90
25871;DHT22;13689;48.590;7.752;2023-04-15T13:06:09;19.00;30.40
25871;DHT22;13689;48.590;7.752;2023-04-15T13:08:35;19.10;30.90
25871;DHT22;13689;48.590;7.752;2023-04-15T13:11:01;19.10;30.90
25871;DHT22;13689;48.590;7.752;2023-04-15T13:13:27;19.10;31.10
25871;DHT22;13689;48.590;7.752;2023-04-15T13:15:52;19.00;31.10
25871;DHT22;13689;48.590;7.752;2023-04-15T13:18:18;18.80;31.30
25871;DHT22;13689;48.590;7.752;2023-04-15T13:20:44;18.90;31.50
25871;DHT22;13689;48.590;7.752;2023-04-15T13:23:09;18.90;31.50
25871;DHT22;13689;48.590;7.752;2023-04-15T13:25:38;18.90;31.60
25871;DHT22;13689;48.590;7.752;2023-04-15T13:28:04;18.80;31.90
25871;DHT22;13689;48.590;7.752;2023-04-15T13:30:29;18.80;32.00
25871;DHT22;13689;48.590;7.752;2023-04-15T13:32:55;18.70;32.10
25871;DHT22;13689;48.590;7.752;2023-04-15T13:35:21;18.70;32.20
25871;DHT22;13689;48.590;7.752;2023-04-15T13:37:46;18.80;32.30
25871;DHT22;13689;48.590;7.752;2023-04-15T13:40:12;19.00;32.30
25871;DHT22;13689;48.590;7.752;2023-04-15T13:42:38;19.20;32.20
25871;DHT22;13689;48.590;7.752;2023-04-15T13:45:03;19.40;32.00
25871;DHT22;13689;48.590;7.752;2023-04-15T13:47:29;19.70;31.70
25871;DHT22;13689;48.590;7.752;2023-04-15T13:49:55;19.80;31.50
25871;DHT22;13689;48.590;7.752;2023-04-15T13:52:21;19.90;31.60
25871;DHT22;13689;48.590;7.752;2023-04-15T13:54:47;20.00;31.50
25871;DHT22;13689;48.590;7.752;2023-04-15T13:57:13;19.90;31.20
25871;DHT22;13689;48.590;7.752;2023-04-15T13:59:38;19.80;31.60
25871;DHT22;13689;48.590;7.752;2023-04-15T14:02:05;19.70;31.60
25871;DHT22;13689;48.590;7.752;2023-04-15T14:04:31;19.70;32.10
25871;DHT22;13689;48.590;7.752;2023-04-15T14:06:56;19.60;32.50
25871;DHT22;13689;48.590;7.752;2023-04-15T14:09:22;19.60;33.20
25871;DHT22;13689;48.590;7.752;2023-04-15T14:11:49;19.40;33.70
25871;DHT22;13689;48.590;7.752;2023-04-15T14:14:15;19.30;33.90
25871;DHT22;13689;48.590;7.752;2023-04-15T14:16:40;19.30;34.00
25871;DHT22;13689;48.590;7.752;2023-04-15T14:19:06;19.30;34.10
25871;DHT22;13689;48.590;7.752;2023-04-15T14:21:32;19.30;34.40
25871;DHT22;13689;48.590;7.752;2023-04-15T14:23:58;19.30;34.60
25871;DHT22;13689;48.590;7.752;2023-04-15T14:26:24;19.40;34.70
25871;DHT22;13689;48.590;7.752;2023-04-15T14:28:50;19.40;34.60
25871;DHT22;13689;48.590;7.752;2023-04-15T14:31:15;19.30;34.20
25871;DHT22;13689;48.590;7.752;2023-04-15T14:33:41;19.20;34.30
25871;DHT22;13689;48.590;7.752;2023-04-15T14:36:08;19.30;34.20
25871;DHT22;13689;48.590;7.752;2023-04-15T14:38:34;19.40;34.10
25871;DHT22;13689;48.590;7.752;2023-04-15T14:41:04;19.50;34.00
25871;DHT22;13689;48.590;7.752;2023-04-15T14:43:30;19.50;33.90
25871;DHT22;13689;48.590;7.752;2023-04-15T14:45:56;19.50;33.90
25871;DHT22;13689;48.590;7.752;2023-04-15T14:48:21;19.50;34.10
25871;DHT22;13689;48.590;7.752;2023-04-15T14:50:47;19.40;34.30
25871;DHT22;13689;48.590;7.752;2023-04-15T14:53:13;19.40;34.60
25871;DHT22;13689;48.590;7.752;2023-04-15T14:55:38;19.40;34.70
25871;DHT22;13689;48.590;7.752;2023-04-15T14:58:05;19.50;34.60
25871;DHT22;13689;48.590;7.752;2023-04-15T15:00:32;19.50;34.70
25871;DHT22;13689;48.590;7.752;2023-04-15T15:02:58;19.50;34.90
25871;DHT22;13689;48.590;7.752;2023-04-15T15:05:24;19.50;34.90
25871;DHT22;13689;48.590;7.752;2023-04-15T15:07:50;19.40;34.70
25871;DHT22;13689;48.590;7.752;2023-04-15T15:10:15;19.20;34.80
25871;DHT22;13689;48.590;7.752;2023-04-15T15:12:41;19.00;34.80
25871;DHT22;13689;48.590;7.752;2023-04-15T15:15:07;18.80;35.20
25871;DHT22;13689;48.590;7.752;2023-04-15T15:17:34;18.60;35.20
25871;DHT22;13689;48.590;7.752;2023-04-15T15:20:00;18.50;35.30
25871;DHT22;13689;48.590;7.752;2023-04-15T15:22:26;18.50;35.20
25871;DHT22;13689;48.590;7.752;2023-04-15T15:24:51;18.50;34.80
25871;DHT22;13689;48.590;7.752;2023-04-15T15:27:17;18.60;34.60
25871;DHT22;13689;48.590;7.752;2023-04-15T15:29:43;18.70;34.00
25871;DHT22;13689;48.590;7.752;2023-04-15T15:32:09;18.70;33.60
25871;DHT22;13689;48.590;7.752;2023-04-15T15:34:34;18.70;33.50
25871;DHT22;13689;48.590;7.752;2023-04-15T15:37:00;18.80;33.20
25871;DHT22;13689;48.590;7.752;2023-04-15T15:39:26;18.80;32.90